sensor_id;sensor_type;location;lat;lon;timestamp;P1;durP1;ratioP1;P2;durP2;ratioP2
5718;SDS011;2884;47.734;9.244;2022-10-16T00:00:29;15.33;;;7.40;;
5718;SDS011;2884;47.734;9.244;2022-10-16T00:02:55;8.03;;;6.97;;
5718;SDS011;2884;47.734;9.244;2022-10-16T00:05:21;7.80;;;7.00;;
5718;SDS011;2884;47.734;9.244;2022-10-16T00:07:46;11.33;;;6.63;;
5718;SDS011;2884;47.734;9.244;2022-10-16T00:10:18;8.23;;;7.47;;
5718;SDS011;2884;47.734;9.244;2022-10-16T00:13:03;7.40;;;6.40;;
5718;SDS011;2884;47.734;9.244;2022-10-16T00:15:29;7.60;;;6.80;;
5718;SDS011;2884;47.734;9.244;2022-10-16T00:17:55;8.97;;;8.20;;
5718;SDS011;2884;47.734;9.244;2022-10-16T00:20:20;11.33;;;7.50;;
5718;SDS011;2884;47.734;9.244;2022-10-16T00:22:46;7.20;;;6.70;;
5718;SDS011;2884;47.734;9.244;2022-10-16T00:25:11;9.90;;;7.73;;
5718;SDS011;2884;47.734;9.244;2022-10-16T00:27:37;7.60;;;7.00;;
5718;SDS011;2884;47.734;9.244;2022-10-16T00:30:03;10.73;;;9.60;;
5718;SDS011;2884;47.734;9.244;2022-10-16T00:32:28;7.83;;;7.30;;
5718;SDS011;2884;47.734;9.244;2022-10-16T00:34:54;8.30;;;7.50;;
5718;SDS011;2884;47.734;9.244;2022-10-16T00:37:20;7.60;;;7.10;;
5718;SDS011;2884;47.734;9.244;2022-10-16T00:39:46;9.77;;;7.77;;
5718;SDS011;2884;47.734;9.244;2022-10-16T00:42:15;10.10;;;8.73;;
5718;SDS011;2884;47.734;9.244;2022-10-16T00:44:53;10.70;;;9.30;;
5718;SDS011;2884;47.734;9.244;2022-10-16T00:49:59;9.40;;;8.60;;
5718;SDS011;2884;47.734;9.244;2022-10-16T00:52:51;8.60;;;8.00;;
5718;SDS011;2884;47.734;9.244;2022-10-16T00:55:17;8.33;;;7.60;;
5718;SDS011;2884;47.734;9.244;2022-10-16T00:57:43;8.17;;;7.47;;
5718;SDS011;2884;47.734;9.244;2022-10-16T01:00:09;9.00;;;7.70;;
5718;SDS011;2884;47.734;9.244;2022-10-16T01:02:37;9.17;;;7.63;;
5718;SDS011;2884;47.734;9.244;2022-10-16T01:05:02;8.50;;;7.60;;
5718;SDS011;2884;47.734;9.244;2022-10-16T01:10:10;9.73;;;7.03;;
5718;SDS011;2884;47.734;9.244;2022-10-16T01:12:50;7.00;;;6.53;;
5718;SDS011;2884;47.734;9.244;2022-10-16T01:20:42;7.43;;;6.50;;
5718;SDS011;2884;47.734;9.244;2022-10-16T01:28:23;7.80;;;6.13;;
5718;SDS011;2884;47.734;9.244;2022-10-16T01:30:53;7.53;;;7.00;;
5718;SDS011;2884;47.734;9.244;2022-10-16T01:33:24;7.57;;;7.00;;
5718;SDS011;2884;47.734;9.244;2022-10-16T01:35:57;9.47;;;6.37;;
5718;SDS011;2884;47.734;9.244;2022-10-16T01:38:34;9.80;;;6.70;;
5718;SDS011;2884;47.734;9.244;2022-10-16T01:41:04;7.67;;;6.97;;
5718;SDS011;2884;47.734;9.244;2022-10-16T01:43:37;7.73;;;6.17;;
5718;SDS011;2884;47.734;9.244;2022-10-16T01:46:06;9.13;;;6.47;;
5718;SDS011;2884;47.734;9.244;2022-10-16T01:48:33;6.97;;;6.27;;
5718;SDS011;2884;47.734;9.244;2022-10-16T01:51:01;12.30;;;6.50;;
5718;SDS011;2884;47.734;9.244;2022-10-16T01:53:39;7.00;;;6.60;;
5718;SDS011;2884;47.734;9.244;2022-10-16T01:56:05;8.50;;;7.37;;
5718;SDS011;2884;47.734;9.244;2022-10-16T01:58:34;7.77;;;6.97;;
5718;SDS011;2884;47.734;9.244;2022-10-16T02:01:03;8.37;;;6.83;;
5718;SDS011;2884;47.734;9.244;2022-10-16T02:03:29;6.40;;;6.00;;
5718;SDS011;2884;47.734;9.244;2022-10-16T02:05:55;7.53;;;6.83;;
5718;SDS011;2884;47.734;9.244;2022-10-16T02:08:30;7.53;;;6.80;;
5718;SDS011;2884;47.734;9.244;2022-10-16T02:10:57;7.23;;;6.60;;
5718;SDS011;2884;47.734;9.244;2022-10-16T02:13:39;7.07;;;6.40;;
5718;SDS011;2884;47.734;9.244;2022-10-16T02:16:10;7.83;;;6.40;;
5718;SDS011;2884;47.734;9.244;2022-10-16T02:18:37;14.43;;;6.47;;
5718;SDS011;2884;47.734;9.244;2022-10-16T02:21:22;7.00;;;6.47;;
5718;SDS011;2884;47.734;9.244;2022-10-16T02:23:51;6.87;;;6.20;;
5718;SDS011;2884;47.734;9.244;2022-10-16T02:26:23;6.90;;;6.30;;
5718;SDS011;2884;47.734;9.244;2022-10-16T02:28:54;6.80;;;6.30;;
5718;SDS011;2884;47.734;9.244;2022-10-16T02:31:24;9.10;;;6.57;;
5718;SDS011;2884;47.734;9.244;2022-10-16T02:33:52;7.43;;;6.30;;
5718;SDS011;2884;47.734;9.244;2022-10-16T02:36:20;11.83;;;6.27;;
5718;SDS011;2884;47.734;9.244;2022-10-16T02:38:46;6.10;;;5.70;;
5718;SDS011;2884;47.734;9.244;2022-10-16T02:41:12;11.27;;;5.80;;
5718;SDS011;2884;47.734;9.244;2022-10-16T02:43:40;6.77;;;5.90;;
5718;SDS011;2884;47.734;9.244;2022-10-16T02:46:05;10.47;;;5.43;;
5718;SDS011;2884;47.734;9.244;2022-10-16T02:48:31;4.93;;;4.73;;
5718;SDS011;2884;47.734;9.244;2022-10-16T02:50:56;6.33;;;5.70;;
5718;SDS011;2884;47.734;9.244;2022-10-16T02:53:22;7.43;;;6.57;;
5718;SDS011;2884;47.734;9.244;2022-10-16T02:55:47;6.70;;;5.73;;
5718;SDS011;2884;47.734;9.244;2022-10-16T02:58:13;5.40;;;5.10;;
5718;SDS011;2884;47.734;9.244;2022-10-16T03:00:38;7.70;;;6.07;;
5718;SDS011;2884;47.734;9.244;2022-10-16T03:03:04;6.53;;;6.00;;
5718;SDS011;2884;47.734;9.244;2022-10-16T03:05:30;6.83;;;6.43;;
5718;SDS011;2884;47.734;9.244;2022-10-16T03:07:55;7.07;;;6.77;;
5718;SDS011;2884;47.734;9.244;2022-10-16T03:10:20;7.53;;;6.93;;
5718;SDS011;2884;47.734;9.244;2022-10-16T03:12:46;7.13;;;6.50;;
5718;SDS011;2884;47.734;9.244;2022-10-16T03:15:12;15.87;;;7.87;;
5718;SDS011;2884;47.734;9.244;2022-10-16T03:17:37;6.50;;;6.20;;
5718;SDS011;2884;47.734;9.244;2022-10-16T03:20:03;17.43;;;6.40;;
5718;SDS011;2884;47.734;9.244;2022-10-16T03:22:29;8.53;;;7.43;;
5718;SDS011;2884;47.734;9.244;2022-10-16T03:24:54;6.17;;;5.77;;
5718;SDS011;2884;47.734;9.244;2022-10-16T03:27:20;6.73;;;5.93;;
5718;SDS011;2884;47.734;9.244;2022-10-16T03:29:45;7.07;;;6.60;;
5718;SDS011;2884;47.734;9.244;2022-10-16T03:32:11;8.60;;;6.37;;
5718;SDS011;2884;47.734;9.244;2022-10-16T03:34:36;6.30;;;5.80;;
5718;SDS011;2884;47.734;9.244;2022-10-16T03:37:02;7.13;;;6.23;;
5718;SDS011;2884;47.734;9.244;2022-10-16T03:39:27;7.40;;;6.70;;
5718;SDS011;2884;47.734;9.244;2022-10-16T03:41:53;6.27;;;5.77;;
5718;SDS011;2884;47.734;9.244;2022-10-16T03:44:18;8.93;;;5.40;;
5718;SDS011;2884;47.734;9.244;2022-10-16T03:46:44;6.47;;;5.90;;
5718;SDS011;2884;47.734;9.244;2022-10-16T03:49:09;5.57;;;5.17;;
5718;SDS011;2884;47.734;9.244;2022-10-16T03:51:35;6.57;;;5.63;;
5718;SDS011;2884;47.734;9.244;2022-10-16T03:54:01;7.77;;;6.37;;
5718;SDS011;2884;47.734;9.244;2022-10-16T03:56:26;8.70;;;6.63;;
5718;SDS011;2884;47.734;9.244;2022-10-16T03:58:52;9.93;;;6.90;;
5718;SDS011;2884;47.734;9.244;2022-10-16T04:01:17;8.90;;;5.93;;
5718;SDS011;2884;47.734;9.244;2022-10-16T04:03:43;7.07;;;6.50;;
5718;SDS011;2884;47.734;9.244;2022-10-16T04:06:08;6.47;;;6.17;;
5718;SDS011;2884;47.734;9.244;2022-10-16T04:08:34;5.83;;;5.43;;
5718;SDS011;2884;47.734;9.244;2022-10-16T04:11:02;10.03;;;6.80;;
5718;SDS011;2884;47.734;9.244;2022-10-16T04:13:27;6.77;;;6.37;;
5718;SDS011;2884;47.734;9.244;2022-10-16T04:15:53;9.13;;;6.90;;
5718;SDS011;2884;47.734;9.244;2022-10-16T04:18:18;8.20;;;7.60;;
5718;SDS011;2884;47.734;9.244;2022-10-16T04:20:44;7.93;;;7.30;;
5718;SDS011;2884;47.734;9.244;2022-10-16T04:23:09;9.27;;;7.20;;
5718;SDS011;2884;47.734;9.244;2022-10-16T04:25:35;8.60;;;7.40;;
5718;SDS011;2884;47.734;9.244;2022-10-16T04:28:01;6.53;;;6.13;;
5718;SDS011;2884;47.734;9.244;2022-10-16T04:30:27;7.07;;;6.40;;
5718;SDS011;2884;47.734;9.244;2022-10-16T04:32:52;6.53;;;6.00;;
5718;SDS011;2884;47.734;9.244;2022-10-16T04:35:18;7.47;;;6.20;;
5718;SDS011;2884;47.734;9.244;2022-10-16T04:37:45;8.27;;;7.43;;
5718;SDS011;2884;47.734;9.244;2022-10-16T04:40:11;14.30;;;8.47;;
5718;SDS011;2884;47.734;9.244;2022-10-16T04:42:37;7.70;;;7.27;;
5718;SDS011;2884;47.734;9.244;2022-10-16T04:45:02;8.40;;;7.80;;
5718;SDS011;2884;47.734;9.244;2022-10-16T04:47:29;13.13;;;6.43;;
5718;SDS011;2884;47.734;9.244;2022-10-16T04:49:54;9.43;;;7.90;;
5718;SDS011;2884;47.734;9.244;2022-10-16T04:52:20;8.73;;;7.87;;
5718;SDS011;2884;47.734;9.244;2022-10-16T04:54:46;7.97;;;6.20;;
5718;SDS011;2884;47.734;9.244;2022-10-16T04:57:12;8.03;;;6.30;;
5718;SDS011;2884;47.734;9.244;2022-10-16T04:59:37;7.00;;;6.50;;
5718;SDS011;2884;47.734;9.244;2022-10-16T05:02:03;7.07;;;6.40;;
5718;SDS011;2884;47.734;9.244;2022-10-16T05:04:28;7.50;;;6.80;;
5718;SDS011;2884;47.734;9.244;2022-10-16T05:06:54;12.20;;;7.33;;
5718;SDS011;2884;47.734;9.244;2022-10-16T05:09:19;7.47;;;6.87;;
5718;SDS011;2884;47.734;9.244;2022-10-16T05:11:45;7.37;;;5.73;;
5718;SDS011;2884;47.734;9.244;2022-10-16T05:14:11;6.77;;;6.37;;
5718;SDS011;2884;47.734;9.244;2022-10-16T05:16:36;6.33;;;6.03;;
5718;SDS011;2884;47.734;9.244;2022-10-16T05:19:02;11.40;;;7.30;;
5718;SDS011;2884;47.734;9.244;2022-10-16T05:21:27;7.10;;;6.80;;
5718;SDS011;2884;47.734;9.244;2022-10-16T05:23:53;8.10;;;7.03;;
5718;SDS011;2884;47.734;9.244;2022-10-16T05:26:20;7.37;;;6.97;;
5718;SDS011;2884;47.734;9.244;2022-10-16T05:28:47;8.73;;;7.37;;
5718;SDS011;2884;47.734;9.244;2022-10-16T05:31:13;10.03;;;7.27;;
5718;SDS011;2884;47.734;9.244;2022-10-16T05:33:38;8.40;;;7.90;;
5718;SDS011;2884;47.734;9.244;2022-10-16T05:36:04;6.80;;;6.40;;
5718;SDS011;2884;47.734;9.244;2022-10-16T05:38:32;6.60;;;6.00;;
5718;SDS011;2884;47.734;9.244;2022-10-16T05:40:58;7.37;;;6.80;;
5718;SDS011;2884;47.734;9.244;2022-10-16T05:43:24;6.43;;;6.07;;
5718;SDS011;2884;47.734;9.244;2022-10-16T05:48:25;6.17;;;5.90;;
5718;SDS011;2884;47.734;9.244;2022-10-16T05:51:24;6.83;;;6.20;;
5718;SDS011;2884;47.734;9.244;2022-10-16T05:53:43;7.67;;;6.07;;
5718;SDS011;2884;47.734;9.244;2022-10-16T05:56:09;8.10;;;6.90;;
5718;SDS011;2884;47.734;9.244;2022-10-16T05:58:36;10.87;;;6.30;;
5718;SDS011;2884;47.734;9.244;2022-10-16T06:03:29;6.80;;;5.67;;
5718;SDS011;2884;47.734;9.244;2022-10-16T06:05:54;7.37;;;6.70;;
5718;SDS011;2884;47.734;9.244;2022-10-16T06:08:20;7.73;;;6.70;;
5718;SDS011;2884;47.734;9.244;2022-10-16T06:10:47;9.43;;;7.07;;
5718;SDS011;2884;47.734;9.244;2022-10-16T06:13:12;6.70;;;6.00;;
5718;SDS011;2884;47.734;9.244;2022-10-16T06:15:39;7.20;;;6.60;;
5718;SDS011;2884;47.734;9.244;2022-10-16T06:18:07;7.17;;;6.57;;
5718;SDS011;2884;47.734;9.244;2022-10-16T06:20:33;6.70;;;6.10;;
5718;SDS011;2884;47.734;9.244;2022-10-16T06:22:59;7.70;;;6.93;;
5718;SDS011;2884;47.734;9.244;2022-10-16T06:25:24;22.03;;;6.90;;
5718;SDS011;2884;47.734;9.244;2022-10-16T06:27:50;7.47;;;6.57;;
5718;SDS011;2884;47.734;9.244;2022-10-16T06:30:15;6.63;;;6.00;;
5718;SDS011;2884;47.734;9.244;2022-10-16T06:32:41;5.93;;;5.60;;
5718;SDS011;2884;47.734;9.244;2022-10-16T06:35:06;6.57;;;5.97;;
5718;SDS011;2884;47.734;9.244;2022-10-16T06:37:32;7.20;;;6.23;;
5718;SDS011;2884;47.734;9.244;2022-10-16T06:39:58;9.70;;;5.47;;
5718;SDS011;2884;47.734;9.244;2022-10-16T06:42:23;6.50;;;5.97;;
5718;SDS011;2884;47.734;9.244;2022-10-16T06:44:49;5.87;;;5.57;;
5718;SDS011;2884;47.734;9.244;2022-10-16T06:47:14;7.97;;;7.00;;
5718;SDS011;2884;47.734;9.244;2022-10-16T06:49:39;7.33;;;6.73;;
5718;SDS011;2884;47.734;9.244;2022-10-16T06:52:05;7.17;;;6.57;;
5718;SDS011;2884;47.734;9.244;2022-10-16T06:54:31;6.37;;;5.87;;
5718;SDS011;2884;47.734;9.244;2022-10-16T06:56:56;8.10;;;6.73;;
5718;SDS011;2884;47.734;9.244;2022-10-16T06:59:22;6.43;;;5.90;;
5718;SDS011;2884;47.734;9.244;2022-10-16T07:01:47;6.67;;;6.23;;
5718;SDS011;2884;47.734;9.244;2022-10-16T07:04:13;8.83;;;6.73;;
5718;SDS011;2884;47.734;9.244;2022-10-16T07:06:39;6.87;;;6.47;;
5718;SDS011;2884;47.734;9.244;2022-10-16T07:09:06;6.03;;;5.57;;
5718;SDS011;2884;47.734;9.244;2022-10-16T07:11:34;6.80;;;6.30;;
5718;SDS011;2884;47.734;9.244;2022-10-16T07:14:00;6.70;;;6.10;;
5718;SDS011;2884;47.734;9.244;2022-10-16T07:16:27;6.20;;;5.60;;
5718;SDS011;2884;47.734;9.244;2022-10-16T07:19:02;6.37;;;5.77;;
5718;SDS011;2884;47.734;9.244;2022-10-16T07:21:29;6.47;;;5.47;;
5718;SDS011;2884;47.734;9.244;2022-10-16T07:24:00;6.83;;;6.40;;
5718;SDS011;2884;47.734;9.244;2022-10-16T07:26:29;10.57;;;5.67;;
5718;SDS011;2884;47.734;9.244;2022-10-16T07:28:56;18.00;;;5.70;;
5718;SDS011;2884;47.734;9.244;2022-10-16T07:31:22;5.90;;;5.07;;
5718;SDS011;2884;47.734;9.244;2022-10-16T07:33:48;10.50;;;6.00;;
5718;SDS011;2884;47.734;9.244;2022-10-16T07:36:15;14.70;;;6.80;;
5718;SDS011;2884;47.734;9.244;2022-10-16T07:38:41;6.30;;;5.67;;
5718;SDS011;2884;47.734;9.244;2022-10-16T07:41:09;7.63;;;6.30;;
5718;SDS011;2884;47.734;9.244;2022-10-16T07:43:36;15.97;;;5.97;;
5718;SDS011;2884;47.734;9.244;2022-10-16T07:46:02;4.97;;;4.60;;
5718;SDS011;2884;47.734;9.244;2022-10-16T07:48:29;9.53;;;4.73;;
5718;SDS011;2884;47.734;9.244;2022-10-16T07:51:05;5.03;;;4.50;;
5718;SDS011;2884;47.734;9.244;2022-10-16T07:53:32;5.00;;;4.70;;
5718;SDS011;2884;47.734;9.244;2022-10-16T07:55:58;6.83;;;5.30;;
5718;SDS011;2884;47.734;9.244;2022-10-16T07:58:25;14.13;;;6.17;;
5718;SDS011;2884;47.734;9.244;2022-10-16T08:00:52;6.23;;;5.63;;
5718;SDS011;2884;47.734;9.244;2022-10-16T08:03:18;5.73;;;4.20;;
5718;SDS011;2884;47.734;9.244;2022-10-16T08:05:43;9.73;;;4.67;;
5718;SDS011;2884;47.734;9.244;2022-10-16T08:08:13;6.53;;;4.30;;
5718;SDS011;2884;47.734;9.244;2022-10-16T08:10:39;11.17;;;3.87;;
5718;SDS011;2884;47.734;9.244;2022-10-16T08:13:04;6.13;;;3.97;;
5718;SDS011;2884;47.734;9.244;2022-10-16T08:15:30;10.90;;;4.17;;
5718;SDS011;2884;47.734;9.244;2022-10-16T08:17:56;14.13;;;3.70;;
5718;SDS011;2884;47.734;9.244;2022-10-16T08:20:26;4.30;;;3.00;;
5718;SDS011;2884;47.734;9.244;2022-10-16T08:22:52;5.20;;;3.00;;
5718;SDS011;2884;47.734;9.244;2022-10-16T08:25:19;3.90;;;2.40;;
5718;SDS011;2884;47.734;9.244;2022-10-16T08:27:45;8.23;;;2.43;;
5718;SDS011;2884;47.734;9.244;2022-10-16T08:30:11;3.80;;;2.20;;
5718;SDS011;2884;47.734;9.244;2022-10-16T08:32:36;2.30;;;2.07;;
5718;SDS011;2884;47.734;9.244;2022-10-16T08:35:02;6.00;;;2.30;;
5718;SDS011;2884;47.734;9.244;2022-10-16T08:37:31;4.80;;;1.87;;
5718;SDS011;2884;47.734;9.244;2022-10-16T08:39:58;3.50;;;2.07;;
5718;SDS011;2884;47.734;9.244;2022-10-16T08:51:00;7.50;;;2.30;;
5718;SDS011;2884;47.734;9.244;2022-10-16T08:53:31;2.50;;;2.17;;
5718;SDS011;2884;47.734;9.244;2022-10-16T08:56:02;2.20;;;2.00;;
5718;SDS011;2884;47.734;9.244;2022-10-16T08:58:28;9.00;;;2.27;;
5718;SDS011;2884;47.734;9.244;2022-10-16T09:00:56;2.10;;;2.00;;
5718;SDS011;2884;47.734;9.244;2022-10-16T09:03:31;3.63;;;2.17;;
5718;SDS011;2884;47.734;9.244;2022-10-16T09:06:04;2.70;;;1.90;;
5718;SDS011;2884;47.734;9.244;2022-10-16T09:11:43;2.97;;;2.70;;
5718;SDS011;2884;47.734;9.244;2022-10-16T09:23:07;8.73;;;2.57;;
5718;SDS011;2884;47.734;9.244;2022-10-16T09:25:49;5.17;;;2.40;;
5718;SDS011;2884;47.734;9.244;2022-10-16T09:28:16;6.77;;;2.17;;
5718;SDS011;2884;47.734;9.244;2022-10-16T09:30:42;2.20;;;2.00;;
5718;SDS011;2884;47.734;9.244;2022-10-16T09:33:09;7.67;;;1.90;;
5718;SDS011;2884;47.734;9.244;2022-10-16T09:35:42;6.03;;;1.97;;
5718;SDS011;2884;47.734;9.244;2022-10-16T09:38:20;3.10;;;1.97;;
5718;SDS011;2884;47.734;9.244;2022-10-16T09:40:47;3.50;;;2.10;;
5718;SDS011;2884;47.734;9.244;2022-10-16T09:45:55;4.60;;;1.70;;
5718;SDS011;2884;47.734;9.244;2022-10-16T09:48:21;7.50;;;1.70;;
5718;SDS011;2884;47.734;9.244;2022-10-16T09:51:01;5.47;;;1.67;;
5718;SDS011;2884;47.734;9.244;2022-10-16T09:53:38;5.50;;;2.27;;
5718;SDS011;2884;47.734;9.244;2022-10-16T09:56:09;5.90;;;1.77;;
5718;SDS011;2884;47.734;9.244;2022-10-16T09:58:41;5.47;;;1.80;;
5718;SDS011;2884;47.734;9.244;2022-10-16T10:01:11;10.40;;;1.90;;
5718;SDS011;2884;47.734;9.244;2022-10-16T10:03:39;4.17;;;2.07;;
5718;SDS011;2884;47.734;9.244;2022-10-16T10:06:14;6.27;;;3.27;;
5718;SDS011;2884;47.734;9.244;2022-10-16T10:08:52;4.73;;;1.93;;
5718;SDS011;2884;47.734;9.244;2022-10-16T10:11:35;8.97;;;2.00;;
5718;SDS011;2884;47.734;9.244;2022-10-16T10:14:21;4.73;;;1.67;;
5718;SDS011;2884;47.734;9.244;2022-10-16T10:16:49;3.40;;;1.90;;
5718;SDS011;2884;47.734;9.244;2022-10-16T10:19:16;2.37;;;1.50;;
5718;SDS011;2884;47.734;9.244;2022-10-16T10:21:43;3.23;;;1.67;;
5718;SDS011;2884;47.734;9.244;2022-10-16T10:24:16;4.00;;;1.93;;
5718;SDS011;2884;47.734;9.244;2022-10-16T10:26:46;7.97;;;2.17;;
5718;SDS011;2884;47.734;9.244;2022-10-16T10:31:56;9.50;;;1.70;;
5718;SDS011;2884;47.734;9.244;2022-10-16T10:34:34;2.93;;;1.50;;
5718;SDS011;2884;47.734;9.244;2022-10-16T10:40:34;3.53;;;1.93;;
5718;SDS011;2884;47.734;9.244;2022-10-16T10:46:22;1.60;;;1.30;;
5718;SDS011;2884;47.734;9.244;2022-10-16T10:51:55;1.93;;;1.60;;
5718;SDS011;2884;47.734;9.244;2022-10-16T11:05:21;2.37;;;1.47;;
5718;SDS011;2884;47.734;9.244;2022-10-16T11:08:08;7.23;;;1.30;;
5718;SDS011;2884;47.734;9.244;2022-10-16T11:10:42;1.87;;;1.30;;
5718;SDS011;2884;47.734;9.244;2022-10-16T11:16:15;3.80;;;1.20;;
5718;SDS011;2884;47.734;9.244;2022-10-16T11:18:49;6.20;;;1.87;;
5718;SDS011;2884;47.734;9.244;2022-10-16T11:21:16;4.53;;;1.40;;
5718;SDS011;2884;47.734;9.244;2022-10-16T11:26:34;2.07;;;1.13;;
5718;SDS011;2884;47.734;9.244;2022-10-16T11:29:01;5.23;;;1.47;;
5718;SDS011;2884;47.734;9.244;2022-10-16T11:31:39;5.67;;;1.60;;
5718;SDS011;2884;47.734;9.244;2022-10-16T11:36:46;2.40;;;1.13;;
5718;SDS011;2884;47.734;9.244;2022-10-16T11:39:26;2.27;;;1.30;;
5718;SDS011;2884;47.734;9.244;2022-10-16T11:41:54;4.90;;;1.60;;
5718;SDS011;2884;47.734;9.244;2022-10-16T11:50:00;1.27;;;1.10;;
5718;SDS011;2884;47.734;9.244;2022-10-16T11:57:47;2.00;;;1.23;;
5718;SDS011;2884;47.734;9.244;2022-10-16T12:00:23;1.87;;;1.23;;
5718;SDS011;2884;47.734;9.244;2022-10-16T12:02:54;6.33;;;1.60;;
5718;SDS011;2884;47.734;9.244;2022-10-16T12:08:17;5.93;;;1.60;;
5718;SDS011;2884;47.734;9.244;2022-10-16T12:10:44;2.03;;;1.30;;
5718;SDS011;2884;47.734;9.244;2022-10-16T12:18:43;5.90;;;1.30;;
5718;SDS011;2884;47.734;9.244;2022-10-16T12:21:10;5.90;;;1.40;;
5718;SDS011;2884;47.734;9.244;2022-10-16T12:23:47;1.57;;;1.10;;
5718;SDS011;2884;47.734;9.244;2022-10-16T12:26:14;5.20;;;1.10;;
5718;SDS011;2884;47.734;9.244;2022-10-16T12:28:49;2.90;;;1.30;;
5718;SDS011;2884;47.734;9.244;2022-10-16T12:31:16;2.00;;;1.20;;
5718;SDS011;2884;47.734;9.244;2022-10-16T12:34:42;1.77;;;1.20;;
5718;SDS011;2884;47.734;9.244;2022-10-16T12:37:18;8.50;;;1.10;;
5718;SDS011;2884;47.734;9.244;2022-10-16T12:39:46;3.40;;;1.03;;
5718;SDS011;2884;47.734;9.244;2022-10-16T12:44:50;1.47;;;1.10;;
5718;SDS011;2884;47.734;9.244;2022-10-16T12:49:57;1.50;;;1.37;;
5718;SDS011;2884;47.734;9.244;2022-10-16T12:52:28;4.63;;;1.27;;
5718;SDS011;2884;47.734;9.244;2022-10-16T12:55:05;4.70;;;1.67;;
5718;SDS011;2884;47.734;9.244;2022-10-16T13:00:15;1.77;;;1.67;;
5718;SDS011;2884;47.734;9.244;2022-10-16T13:02:55;3.37;;;1.47;;
5718;SDS011;2884;47.734;9.244;2022-10-16T13:19:27;5.27;;;1.57;;
5718;SDS011;2884;47.734;9.244;2022-10-16T13:30:11;4.63;;;1.40;;
5718;SDS011;2884;47.734;9.244;2022-10-16T13:32:39;4.00;;;1.53;;
5718;SDS011;2884;47.734;9.244;2022-10-16T13:35:17;3.33;;;1.13;;
5718;SDS011;2884;47.734;9.244;2022-10-16T13:38:11;2.00;;;1.40;;
5718;SDS011;2884;47.734;9.244;2022-10-16T13:40:52;4.87;;;1.37;;
5718;SDS011;2884;47.734;9.244;2022-10-16T13:43:18;1.37;;;1.20;;
5718;SDS011;2884;47.734;9.244;2022-10-16T13:46:10;6.83;;;1.47;;
5718;SDS011;2884;47.734;9.244;2022-10-16T13:48:33;2.87;;;1.37;;
5718;SDS011;2884;47.734;9.244;2022-10-16T13:51:06;1.40;;;1.30;;
5718;SDS011;2884;47.734;9.244;2022-10-16T13:53:38;2.67;;;1.43;;
5718;SDS011;2884;47.734;9.244;2022-10-16T13:56:05;1.10;;;1.10;;
5718;SDS011;2884;47.734;9.244;2022-10-16T13:58:32;1.83;;;1.33;;
5718;SDS011;2884;47.734;9.244;2022-10-16T14:00:59;4.00;;;1.80;;
5718;SDS011;2884;47.734;9.244;2022-10-16T14:03:30;1.57;;;1.30;;
5718;SDS011;2884;47.734;9.244;2022-10-16T14:05:59;4.87;;;1.50;;
5718;SDS011;2884;47.734;9.244;2022-10-16T14:08:27;3.07;;;1.17;;
5718;SDS011;2884;47.734;9.244;2022-10-16T14:10:55;4.70;;;1.23;;
5718;SDS011;2884;47.734;9.244;2022-10-16T14:15:56;4.40;;;1.37;;
5718;SDS011;2884;47.734;9.244;2022-10-16T14:18:24;4.50;;;1.43;;
5718;SDS011;2884;47.734;9.244;2022-10-16T14:20:50;2.10;;;1.27;;
5718;SDS011;2884;47.734;9.244;2022-10-16T14:25:49;3.00;;;1.50;;
5718;SDS011;2884;47.734;9.244;2022-10-16T14:28:15;2.60;;;1.20;;
5718;SDS011;2884;47.734;9.244;2022-10-16T14:30:53;1.50;;;1.40;;
5718;SDS011;2884;47.734;9.244;2022-10-16T14:36:11;1.90;;;1.10;;
5718;SDS011;2884;47.734;9.244;2022-10-16T14:38:39;9.50;;;1.47;;
5718;SDS011;2884;47.734;9.244;2022-10-16T14:41:08;1.53;;;1.10;;
5718;SDS011;2884;47.734;9.244;2022-10-16T14:46:01;0.90;;;0.90;;
5718;SDS011;2884;47.734;9.244;2022-10-16T14:48:28;2.40;;;1.60;;
5718;SDS011;2884;47.734;9.244;2022-10-16T14:50:54;1.73;;;1.50;;
5718;SDS011;2884;47.734;9.244;2022-10-16T14:53:20;2.73;;;1.13;;
5718;SDS011;2884;47.734;9.244;2022-10-16T14:55:46;1.47;;;1.20;;
5718;SDS011;2884;47.734;9.244;2022-10-16T14:58:17;1.53;;;1.30;;
5718;SDS011;2884;47.734;9.244;2022-10-16T15:00:44;4.70;;;1.37;;
5718;SDS011;2884;47.734;9.244;2022-10-16T15:03:10;1.23;;;1.13;;
5718;SDS011;2884;47.734;9.244;2022-10-16T15:05:35;2.07;;;1.20;;
5718;SDS011;2884;47.734;9.244;2022-10-16T15:08:01;3.23;;;1.13;;
5718;SDS011;2884;47.734;9.244;2022-10-16T15:10:27;1.93;;;1.40;;
5718;SDS011;2884;47.734;9.244;2022-10-16T15:12:54;1.20;;;1.10;;
5718;SDS011;2884;47.734;9.244;2022-10-16T15:15:23;1.60;;;1.10;;
5718;SDS011;2884;47.734;9.244;2022-10-16T15:17:50;2.70;;;1.03;;
5718;SDS011;2884;47.734;9.244;2022-10-16T15:20:21;1.93;;;1.40;;
5718;SDS011;2884;47.734;9.244;2022-10-16T15:22:48;1.23;;;1.13;;
5718;SDS011;2884;47.734;9.244;2022-10-16T15:25:27;11.07;;;1.80;;
5718;SDS011;2884;47.734;9.244;2022-10-16T15:27:57;4.20;;;2.73;;
5718;SDS011;2884;47.734;9.244;2022-10-16T15:30:23;3.80;;;2.20;;
5718;SDS011;2884;47.734;9.244;2022-10-16T15:32:49;1.90;;;1.80;;
5718;SDS011;2884;47.734;9.244;2022-10-16T15:35:14;4.60;;;2.80;;
5718;SDS011;2884;47.734;9.244;2022-10-16T15:37:40;10.73;;;4.10;;
5718;SDS011;2884;47.734;9.244;2022-10-16T15:40:05;6.70;;;4.00;;
5718;SDS011;2884;47.734;9.244;2022-10-16T15:42:31;6.90;;;4.10;;
5718;SDS011;2884;47.734;9.244;2022-10-16T15:44:57;6.97;;;4.20;;
5718;SDS011;2884;47.734;9.244;2022-10-16T15:47:22;5.20;;;4.07;;
5718;SDS011;2884;47.734;9.244;2022-10-16T15:49:48;5.33;;;3.20;;
5718;SDS011;2884;47.734;9.244;2022-10-16T15:52:13;11.80;;;3.27;;
5718;SDS011;2884;47.734;9.244;2022-10-16T15:54:39;7.23;;;2.77;;
5718;SDS011;2884;47.734;9.244;2022-10-16T15:57:04;5.73;;;2.53;;
5718;SDS011;2884;47.734;9.244;2022-10-16T15:59:30;3.13;;;2.00;;
5718;SDS011;2884;47.734;9.244;2022-10-16T16:01:55;3.93;;;1.70;;
5718;SDS011;2884;47.734;9.244;2022-10-16T16:04:21;2.50;;;2.00;;
5718;SDS011;2884;47.734;9.244;2022-10-16T16:06:46;6.50;;;1.90;;
5718;SDS011;2884;47.734;9.244;2022-10-16T16:09:12;2.73;;;2.00;;
5718;SDS011;2884;47.734;9.244;2022-10-16T16:11:38;3.57;;;2.97;;
5718;SDS011;2884;47.734;9.244;2022-10-16T16:14:04;7.40;;;4.23;;
5718;SDS011;2884;47.734;9.244;2022-10-16T16:16:31;4.93;;;4.30;;
5718;SDS011;2884;47.734;9.244;2022-10-16T16:19:02;15.80;;;7.33;;
5718;SDS011;2884;47.734;9.244;2022-10-16T16:21:28;60.30;;;44.30;;
5718;SDS011;2884;47.734;9.244;2022-10-16T16:23:54;11.00;;;9.40;;
5718;SDS011;2884;47.734;9.244;2022-10-16T16:26:23;5.03;;;2.20;;
5718;SDS011;2884;47.734;9.244;2022-10-16T16:28:53;7.70;;;2.70;;
5718;SDS011;2884;47.734;9.244;2022-10-16T16:31:20;2.10;;;1.60;;
5718;SDS011;2884;47.734;9.244;2022-10-16T16:33:46;11.97;;;2.00;;
5718;SDS011;2884;47.734;9.244;2022-10-16T16:36:12;3.30;;;1.83;;
5718;SDS011;2884;47.734;9.244;2022-10-16T16:38:37;3.17;;;1.67;;
5718;SDS011;2884;47.734;9.244;2022-10-16T16:41:19;5.00;;;1.80;;
5718;SDS011;2884;47.734;9.244;2022-10-16T16:43:46;6.60;;;1.80;;
5718;SDS011;2884;47.734;9.244;2022-10-16T16:46:12;2.17;;;1.30;;
5718;SDS011;2884;47.734;9.244;2022-10-16T16:48:41;5.60;;;1.50;;
5718;SDS011;2884;47.734;9.244;2022-10-16T16:51:08;1.50;;;1.40;;
5718;SDS011;2884;47.734;9.244;2022-10-16T16:53:40;1.77;;;1.67;;
5718;SDS011;2884;47.734;9.244;2022-10-16T16:56:05;5.47;;;2.33;;
5718;SDS011;2884;47.734;9.244;2022-10-16T16:58:31;5.73;;;2.47;;
5718;SDS011;2884;47.734;9.244;2022-10-16T17:00:57;2.73;;;2.50;;
5718;SDS011;2884;47.734;9.244;2022-10-16T17:03:28;6.17;;;2.60;;
5718;SDS011;2884;47.734;9.244;2022-10-16T17:05:55;3.90;;;2.13;;
5718;SDS011;2884;47.734;9.244;2022-10-16T17:08:24;8.57;;;2.27;;
5718;SDS011;2884;47.734;9.244;2022-10-16T17:10:49;7.00;;;2.07;;
5718;SDS011;2884;47.734;9.244;2022-10-16T17:13:18;7.00;;;3.00;;
5718;SDS011;2884;47.734;9.244;2022-10-16T17:15:47;12.70;;;6.40;;
5718;SDS011;2884;47.734;9.244;2022-10-16T17:18:13;11.23;;;5.53;;
5718;SDS011;2884;47.734;9.244;2022-10-16T17:20:39;12.97;;;4.67;;
5718;SDS011;2884;47.734;9.244;2022-10-16T17:23:05;8.57;;;4.47;;
5718;SDS011;2884;47.734;9.244;2022-10-16T17:25:31;6.10;;;3.80;;
5718;SDS011;2884;47.734;9.244;2022-10-16T17:27:56;6.20;;;4.10;;
5718;SDS011;2884;47.734;9.244;2022-10-16T17:30:23;27.60;;;5.63;;
5718;SDS011;2884;47.734;9.244;2022-10-16T17:32:49;14.53;;;6.57;;
5718;SDS011;2884;47.734;9.244;2022-10-16T17:35:14;7.73;;;5.10;;
5718;SDS011;2884;47.734;9.244;2022-10-16T17:37:41;5.30;;;3.90;;